Time;durP1;ratioP1;P1;durP2;ratioP2;P2;SDS_P1;SDS_P2;PMS_P1;PMS_P2;Temp;Humidity;BMP_temperature;BMP_pressure;BME280_temperature;BME280_humidity;BME280_pressure;Samples;Min_cycle;Max_cycle;Signal;HPM_P1;HPM_P2
2023/07/23 00:00:47;;;;;;;8.80;8.40;;;20.70;77.40;;;;;;4891494;29;20490;-82
2023/07/23 00:06:01;;;;;;;9.27;8.87;;;20.60;77.50;;;;;;4898468;29;20821;-78
2023/07/23 00:08:29;;;;;;;9.07;8.77;;;20.60;77.50;;;;;;4875883;29;20538;-76
2023/07/23 00:10:59;;;;;;;9.07;8.77;;;20.60;78.20;;;;;;4890130;29;20517;-77
2023/07/23 00:13:27;;;;;;;9.00;8.60;;;20.50;78.20;;;;;;4895853;29;20476;-78
2023/07/23 00:15:55;;;;;;;9.30;9.00;;;20.50;79.70;;;;;;4876458;29;20501;-77
2023/07/23 00:18:23;;;;;;;8.93;8.53;;;20.50;78.10;;;;;;4896865;29;20469;-77
2023/07/23 00:20:51;;;;;;;8.87;8.57;;;20.50;78.40;;;;;;4899518;29;21156;-75
2023/07/23 00:23:19;;;;;;;9.00;8.70;;;20.40;77.00;;;;;;4898692;29;20477;-78
2023/07/23 00:25:48;;;;;;;9.50;9.20;;;20.40;77.60;;;;;;4899101;29;20981;-77
2023/07/23 00:28:18;;;;;;;8.90;8.50;;;20.30;77.20;;;;;;4899227;29;20482;-76
2023/07/23 00:30:46;;;;;;;8.97;8.60;;;20.30;77.90;;;;;;4900567;29;20469;-77
2023/07/23 00:33:14;;;;;;;9.20;8.70;;;20.30;78.10;;;;;;4899399;29;20485;-77
2023/07/23 00:35:42;;;;;;;9.17;8.87;;;20.30;77.60;;;;;;4897134;29;20577;-78
2023/07/23 00:38:11;;;;;;;9.27;8.97;;;20.30;78.50;;;;;;4896121;29;21101;-80
2023/07/23 00:40:39;;;;;;;9.10;8.70;;;20.20;78.60;;;;;;4901077;29;20456;-80
2023/07/23 00:43:07;;;;;;;9.50;9.00;;;20.10;77.50;;;;;;4897822;29;20198;-82
2023/07/23 00:45:37;;;;;;;9.60;9.03;;;20.20;77.70;;;;;;4900850;29;20529;-80
2023/07/23 00:48:06;;;;;;;8.93;8.63;;;20.30;79.30;;;;;;4899658;29;20897;-80
2023/07/23 00:50:34;;;;;;;9.60;9.20;;;20.20;79.40;;;;;;4897268;29;21089;-79
2023/07/23 00:53:02;;;;;;;9.87;9.03;;;20.30;81.40;;;;;;4898369;29;20458;-78
2023/07/23 00:55:30;;;;;;;9.40;9.10;;;20.30;81.60;;;;;;4897318;29;20897;-80
2023/07/23 00:57:59;;;;;;;9.30;9.00;;;20.30;82.90;;;;;;4898188;29;20530;-78
2023/07/23 01:00:27;;;;;;;10.63;9.20;;;20.30;81.30;;;;;;4892122;29;20532;-80
2023/07/23 01:02:57;;;;;;;9.40;9.10;;;20.40;83.70;;;;;;4894420;29;20466;-81
2023/07/23 01:05:26;;;;;;;8.73;8.50;;;20.40;84.70;;;;;;4897373;29;20459;-79
2023/07/23 01:07:56;;;;;;;9.00;8.70;;;20.40;83.70;;;;;;4899254;29;20460;-79
2023/07/23 01:10:24;;;;;;;9.10;8.70;;;20.30;81.70;;;;;;4896066;29;20490;-79
2023/07/23 01:12:53;;;;;;;8.97;8.60;;;20.30;82.50;;;;;;4900069;29;20476;-80
2023/07/23 01:15:21;;;;;;;9.10;8.70;;;20.30;82.50;;;;;;4894526;29;20498;-80
2023/07/23 01:17:51;;;;;;;10.07;9.67;;;20.40;82.40;;;;;;4899814;29;20470;-78
2023/07/23 01:20:21;;;;;;;9.00;8.70;;;20.30;82.30;;;;;;4898277;29;20517;-78
2023/07/23 01:22:51;;;;;;;8.90;8.60;;;20.30;81.00;;;;;;4897234;29;20473;-78
2023/07/23 01:25:19;;;;;;;9.73;9.33;;;20.20;80.40;;;;;;4897847;29;20475;-79
2023/07/23 01:27:47;;;;;;;9.73;9.43;;;20.10;81.00;;;;;;4896341;29;20573;-79
2023/07/23 01:30:15;;;;;;;9.67;9.27;;;20.10;80.10;;;;;;4897028;29;20465;-79
2023/07/23 01:32:44;;;;;;;10.40;10.10;;;20.10;80.60;;;;;;4894839;29;20568;-79
2023/07/23 01:35:14;;;;;;;9.93;9.63;;;20.00;80.90;;;;;;4898898;29;20542;-80
2023/07/23 01:37:44;;;;;;;11.00;10.50;;;20.00;80.60;;;;;;4899564;29;20540;-79
2023/07/23 01:40:14;;;;;;;10.07;9.70;;;20.00;80.80;;;;;;4897940;29;21187;-78
2023/07/23 01:42:44;;;;;;;11.13;10.73;;;20.00;80.90;;;;;;4897893;29;20454;-77
2023/07/23 01:45:13;;;;;;;10.90;10.40;;;19.90;80.40;;;;;;4898404;29;20469;-78
2023/07/23 01:47:42;;;;;;;10.60;10.20;;;19.90;82.00;;;;;;4898357;29;20998;-77
2023/07/23 01:50:10;;;;;;;11.13;10.63;;;19.80;81.50;;;;;;4899111;29;20549;-79
2023/07/23 01:52:38;;;;;;;10.27;9.97;;;19.80;81.90;;;;;;4898689;29;20465;-80
2023/07/23 01:55:08;;;;;;;10.43;10.10;;;19.80;81.90;;;;;;4897632;29;20470;-78
2023/07/23 01:57:37;;;;;;;10.50;10.20;;;19.80;82.70;;;;;;4899988;29;21198;-78
2023/07/23 02:00:08;;;;;;;10.40;10.00;;;19.80;82.70;;;;;;4898149;29;20514;-79
2023/07/23 02:02:36;;;;;;;10.57;10.27;;;19.70;82.70;;;;;;4899352;29;20542;-79
2023/07/23 02:05:05;;;;;;;10.13;9.77;;;19.80;83.20;;;;;;4898248;29;20454;-78
2023/07/23 02:07:33;;;;;;;10.83;10.40;;;19.80;83.80;;;;;;4900544;29;20453;-78
2023/07/23 02:10:01;;;;;;;10.67;10.30;;;19.80;83.60;;;;;;4898265;29;20482;-80
2023/07/23 02:12:30;;;;;;;10.73;10.23;;;19.70;83.20;;;;;;4892200;29;20461;-79
2023/07/23 02:14:59;;;;;;;10.60;10.10;;;19.70;82.20;;;;;;4895499;29;20465;-79
2023/07/23 02:17:27;;;;;;;10.30;10.00;;;19.60;82.40;;;;;;4875136;29;20486;-78
2023/07/23 02:19:55;;;;;;;10.33;9.83;;;19.60;83.30;;;;;;4895282;29;20473;-78
2023/07/23 02:22:24;;;;;;;10.77;10.40;;;19.60;82.90;;;;;;4900693;29;20466;-78
2023/07/23 02:24:52;;;;;;;10.50;10.10;;;19.50;83.40;;;;;;4897339;29;20983;-79
2023/07/23 02:27:20;;;;;;;10.43;10.13;;;19.50;83.80;;;;;;4878992;29;20593;-79
2023/07/23 02:29:49;;;;;;;11.10;10.70;;;19.60;85.00;;;;;;4895195;29;20485;-78
2023/07/23 02:32:18;;;;;;;10.40;10.00;;;19.70;86.40;;;;;;4893074;29;20481;-78
2023/07/23 02:34:47;;;;;;;10.50;10.10;;;19.70;87.10;;;;;;4895254;29;20541;-79
2023/07/23 02:37:15;;;;;;;10.60;10.20;;;19.70;85.70;;;;;;4894360;29;20495;-79
2023/07/23 02:39:43;;;;;;;10.47;10.07;;;19.80;87.90;;;;;;4897011;29;20471;-78
2023/07/23 02:42:11;;;;;;;10.57;10.17;;;19.90;89.90;;;;;;4895321;29;20530;-79
2023/07/23 02:44:39;;;;;;;10.10;9.80;;;19.90;90.00;;;;;;4896518;29;20454;-78
2023/07/23 02:47:07;;;;;;;10.87;10.47;;;19.90;90.70;;;;;;4897269;29;20543;-80
2023/07/23 02:49:37;;;;;;;10.47;10.07;;;19.90;90.40;;;;;;4895433;29;20487;-78
2023/07/23 02:52:06;;;;;;;10.90;10.50;;;19.90;91.50;;;;;;4894027;29;20852;-78
2023/07/23 02:54:34;;;;;;;10.80;10.40;;;19.90;90.50;;;;;;4898017;29;20466;-79
2023/07/23 02:57:02;;;;;;;10.37;10.07;;;19.90;90.10;;;;;;4896765;29;20495;-80
2023/07/23 02:59:31;;;;;;;10.50;10.20;;;20.00;90.50;;;;;;4900019;29;20486;-79
2023/07/23 03:01:59;;;;;;;10.37;10.07;;;19.80;86.60;;;;;;4901459;29;20456;-79
2023/07/23 03:04:27;;;;;;;11.10;10.50;;;19.70;96.90;;;;;;4895000;29;20494;-78
2023/07/23 03:06:56;;;;;;;11.43;11.03;;;19.60;86.50;;;;;;4901018;29;20461;-78
2023/07/23 03:09:24;;;;;;;10.93;10.43;;;19.60;97.30;;;;;;4899036;29;20712;-79
2023/07/23 03:11:53;;;;;;;11.00;10.50;;;19.60;87.10;;;;;;4901089;29;21345;-80
2023/07/23 03:14:21;;;;;;;11.33;10.73;;;19.60;87.80;;;;;;4898634;29;20474;-81
2023/07/23 03:16:49;;;;;;;10.83;10.50;;;19.50;97.20;;;;;;4882140;29;20495;-78
2023/07/23 03:19:17;;;;;;;10.53;10.23;;;19.60;86.80;;;;;;4897467;29;20482;-80
2023/07/23 03:21:45;;;;;;;10.40;10.10;;;19.60;88.50;;;;;;4902000;29;20466;-81
2023/07/23 03:24:14;;;;;;;11.20;10.80;;;19.60;87.40;;;;;;4901205;29;20457;-79
2023/07/23 03:26:42;;;;;;;10.33;10.03;;;19.50;87.30;;;;;;4892001;29;20552;-82
2023/07/23 03:29:11;;;;;;;11.23;10.73;;;19.50;89.10;;;;;;4897552;29;20486;-80
2023/07/23 03:31:39;;;;;;;10.63;10.13;;;19.60;99.90;;;;;;4898391;29;20953;-80
2023/07/23 03:34:07;;;;;;;11.37;10.67;;;19.60;90.60;;;;;;4897516;29;20458;-80
2023/07/23 03:36:35;;;;;;;10.50;10.17;;;19.50;89.00;;;;;;4898929;29;20470;-79
2023/07/23 03:39:03;;;;;;;10.90;10.50;;;19.50;88.90;;;;;;4897799;29;20494;-78
2023/07/23 03:41:33;;;;;;;11.20;10.70;;;19.50;89.80;;;;;;4899316;29;20464;-78
2023/07/23 03:44:01;;;;;;;10.50;10.07;;;19.50;89.00;;;;;;4895046;29;20493;-79
2023/07/23 03:46:29;;;;;;;10.50;10.10;;;19.50;88.70;;;;;;4899066;29;20474;-78
2023/07/23 03:48:57;;;;;;;10.47;10.07;;;19.50;89.50;;;;;;4901077;29;20593;-78
2023/07/23 03:51:25;;;;;;;10.63;10.33;;;19.50;90.40;;;;;;4898662;29;20466;-79
2023/07/23 03:53:54;;;;;;;11.00;10.60;;;19.50;90.30;;;;;;4899174;29;20473;-77
2023/07/23 03:56:22;;;;;;;10.77;10.40;;;19.50;99.10;;;;;;4900711;29;20509;-78
2023/07/23 03:58:51;;;;;;;11.17;10.77;;;19.50;90.20;;;;;;4897897;29;20481;-77
2023/07/23 04:01:19;;;;;;;11.40;10.90;;;19.50;90.40;;;;;;4897286;29;20470;-77
2023/07/23 04:03:48;;;;;;;10.90;10.50;;;19.50;91.40;;;;;;4898235;29;21050;-78
2023/07/23 04:06:16;;;;;;;12.27;11.47;;;19.40;90.20;;;;;;4898355;29;20845;-79
2023/07/23 04:08:44;;;;;;;11.37;10.97;;;19.40;90.70;;;;;;4901865;29;20485;-80
2023/07/23 04:11:12;;;;;;;11.23;10.80;;;19.40;91.00;;;;;;4879589;29;21816;-79
2023/07/23 04:13:40;;;;;;;11.20;10.80;;;19.40;91.00;;;;;;4898775;29;20462;-79
2023/07/23 04:16:11;;;;;;;11.37;10.87;;;19.30;91.20;;;;;;4898619;29;20469;-79
2023/07/23 04:18:47;;;;;;;11.70;11.30;;;19.30;91.50;;;;;;4897740;29;20484;-78
2023/07/23 04:21:15;;;;;;;11.77;11.13;;;19.20;92.00;;;;;;4897155;29;20952;-78
2023/07/23 04:23:46;;;;;;;11.23;10.87;;;19.20;91.80;;;;;;4899834;29;20470;-79
2023/07/23 04:26:15;;;;;;;11.73;11.27;;;19.10;92.50;;;;;;4898548;29;21093;-78
2023/07/23 04:28:43;;;;;;;10.93;10.63;;;19.10;92.70;;;;;;4895971;29;20458;-78
2023/07/23 04:31:13;;;;;;;10.50;10.10;;;19.10;92.90;;;;;;4898722;29;20454;-77
2023/07/23 04:33:41;;;;;;;11.20;10.90;;;19.20;93.10;;;;;;4879621;29;20569;-78
2023/07/23 04:36:10;;;;;;;11.30;10.80;;;19.20;93.60;;;;;;4897579;29;20527;-78
2023/07/23 04:38:38;;;;;;;10.87;10.47;;;19.20;93.70;;;;;;4897415;29;20505;-77
2023/07/23 04:41:06;;;;;;;11.40;11.00;;;19.30;94.10;;;;;;4896899;29;20483;-78
2023/07/23 04:43:35;;;;;;;10.93;10.50;;;19.20;95.10;;;;;;4896466;29;20466;-78
2023/07/23 04:46:04;;;;;;;10.80;10.40;;;19.20;96.50;;;;;;4894949;29;20465;-78
2023/07/23 04:48:34;;;;;;;11.47;11.07;;;19.20;97.40;;;;;;4899182;29;20450;-77
2023/07/23 04:51:04;;;;;;;11.30;10.80;;;19.20;97.20;;;;;;4898240;29;20506;-80
2023/07/23 04:53:33;;;;;;;12.37;11.87;;;19.20;97.40;;;;;;4897312;29;20454;-77
2023/07/23 04:56:03;;;;;;;11.40;11.00;;;19.20;98.20;;;;;;4897165;29;20473;-79
2023/07/23 04:58:33;;;;;;;12.40;11.90;;;19.20;99.50;;;;;;4900114;29;20568;-80
2023/07/23 05:01:07;;;;;;;11.33;10.93;;;19.10;98.20;;;;;;4897471;29;20462;-78
2023/07/23 05:03:37;;;;;;;11.53;11.07;;;19.10;98.40;;;;;;4898909;29;20564;-78
2023/07/23 05:06:06;;;;;;;11.60;11.20;;;19.20;99.80;;;;;;4894472;29;20554;-80
2023/07/23 05:08:35;;;;;;;11.67;11.27;;;19.20;99.90;;;;;;4897656;29;20464;-78
2023/07/23 05:11:04;;;;;;;11.33;11.00;;;19.20;99.90;;;;;;4878407;29;20674;-77
2023/07/23 05:13:33;;;;;;;11.77;11.27;;;19.30;99.90;;;;;;4897518;29;20457;-79
2023/07/23 05:16:03;;;;;;;11.40;10.97;;;19.30;99.90;;;;;;4878033;29;20533;-80
2023/07/23 05:18:32;;;;;;;11.20;10.80;;;19.30;99.90;;;;;;4893684;29;20505;-77
2023/07/23 05:21:03;;;;;;;11.00;10.70;;;19.30;99.90;;;;;;4892422;29;20666;-80
2023/07/23 05:23:32;;;;;;;11.27;10.97;;;19.40;99.90;;;;;;4897495;29;20461;-78
2023/07/23 05:26:00;;;;;;;11.20;10.80;;;19.40;99.90;;;;;;4889612;29;20915;-77
2023/07/23 05:28:29;;;;;;;11.50;11.10;;;19.50;99.90;;;;;;4874135;29;20464;-77
2023/07/23 05:30:58;;;;;;;11.10;10.80;;;19.60;99.90;;;;;;4889591;29;20942;-80
2023/07/23 05:33:26;;;;;;;11.50;11.20;;;19.60;99.90;;;;;;4895071;29;21054;-77
2023/07/23 05:35:55;;;;;;;11.67;11.27;;;19.70;99.90;;;;;;4895577;29;20461;-79
2023/07/23 05:38:25;;;;;;;11.40;10.90;;;19.70;99.90;;;;;;4898152;29;20500;-80
2023/07/23 05:40:57;;;;;;;11.80;11.40;;;19.80;99.90;;;;;;4895746;29;20565;-78
2023/07/23 05:43:25;;;;;;;11.47;11.00;;;19.90;99.90;;;;;;4894207;29;20474;-80
2023/07/23 05:45:57;;;;;;;11.83;11.33;;;20.00;99.90;;;;;;4896804;29;20474;-82
2023/07/23 05:48:25;;;;;;;12.40;11.90;;;20.00;99.90;;;;;;4895576;29;20457;-79
2023/07/23 05:50:53;;;;;;;11.60;11.17;;;20.10;99.90;;;;;;4896699;29;21074;-79
2023/07/23 05:53:21;;;;;;;11.20;10.90;;;20.10;99.90;;;;;;4897841;29;20518;-81
2023/07/23 05:55:52;;;;;;;11.27;10.97;;;20.20;99.90;;;;;;4899542;29;20967;-80
2023/07/23 05:58:20;;;;;;;10.80;10.50;;;20.20;99.90;;;;;;4897939;29;20915;-80
2023/07/23 06:00:48;;;;;;;11.60;11.30;;;20.30;99.90;;;;;;4896545;29;21027;-81
2023/07/23 06:03:17;;;;;;;11.47;11.10;;;20.30;99.90;;;;;;4891915;29;20470;-81
2023/07/23 06:05:45;;;;;;;11.03;10.63;;;20.30;99.90;;;;;;4897907;29;20455;-79
2023/07/23 06:08:13;;;;;;;11.47;11.17;;;20.40;99.90;;;;;;4900001;29;20979;-79
2023/07/23 06:10:42;;;;;;;11.63;11.23;;;20.40;99.90;;;;;;4896352;29;20463;-78
2023/07/23 06:13:11;;;;;;;12.30;11.80;;;20.50;99.90;;;;;;4894007;29;20229;-80
2023/07/23 06:15:40;;;;;;;11.77;11.20;;;20.60;99.90;;;;;;4899207;29;20447;-80
2023/07/23 06:18:08;;;;;;;11.50;10.90;;;20.80;99.90;;;;;;4897922;29;20473;-71
2023/07/23 06:20:36;;;;;;;10.93;10.50;;;20.80;99.90;;;;;;4897939;29;20473;-72
2023/07/23 06:23:04;;;;;;;10.97;10.57;;;20.90;99.90;;;;;;4896350;29;20457;-71
2023/07/23 06:25:32;;;;;;;10.90;10.60;;;20.80;99.90;;;;;;4897139;29;20497;-72
2023/07/23 06:28:00;;;;;;;11.00;10.67;;;20.80;99.90;;;;;;4895932;29;20457;-72
2023/07/23 06:30:30;;;;;;;12.93;11.97;;;20.80;99.90;;;;;;4893369;29;22445;-71
2023/07/23 06:32:58;;;;;;;11.43;11.00;;;20.90;99.90;;;;;;4897380;29;20845;-72
2023/07/23 06:35:26;;;;;;;11.43;11.03;;;20.90;99.90;;;;;;4898142;29;20861;-72
2023/07/23 06:37:55;;;;;;;10.80;10.50;;;20.90;99.90;;;;;;4893263;29;20449;-72
2023/07/23 06:40:23;;;;;;;11.07;10.77;;;20.90;99.90;;;;;;4895858;29;20493;-71
2023/07/23 06:42:51;;;;;;;11.57;11.17;;;21.00;99.90;;;;;;4893679;29;20460;-72
2023/07/23 06:45:19;;;;;;;11.13;10.80;;;20.90;99.90;;;;;;4894366;29;20906;-72
2023/07/23 06:47:49;;;;;;;11.20;10.73;;;21.00;99.90;;;;;;4897060;29;20920;-72
2023/07/23 06:50:18;;;;;;;11.63;11.23;;;21.00;99.90;;;;;;4891833;29;20488;-72
2023/07/23 06:52:46;;;;;;;11.40;11.10;;;21.00;99.90;;;;;;4892161;29;20480;-72
2023/07/23 06:55:15;;;;;;;12.40;11.77;;;21.10;99.90;;;;;;4898148;29;20461;-72
2023/07/23 06:57:43;;;;;;;11.47;11.07;;;21.20;99.90;;;;;;4895628;29;20461;-73
2023/07/23 07:00:12;;;;;;;11.70;11.30;;;21.20;99.90;;;;;;4893903;29;21207;-73
2023/07/23 07:02:41;;;;;;;10.90;10.60;;;21.30;99.90;;;;;;4897543;29;20946;-73
2023/07/23 07:05:11;;;;;;;11.43;10.87;;;21.30;99.90;;;;;;4895743;29;20473;-74
2023/07/23 07:07:39;;;;;;;11.40;11.07;;;21.30;99.90;;;;;;4895485;29;20464;-72
2023/07/23 07:10:08;;;;;;;11.63;11.13;;;21.40;99.90;;;;;;4898439;29;20480;-72
2023/07/23 07:12:36;;;;;;;10.87;10.57;;;21.50;99.90;;;;;;4894483;29;20974;-73
2023/07/23 07:15:05;;;;;;;11.47;11.07;;;21.50;99.90;;;;;;4888001;29;20469;-72
2023/07/23 07:17:33;;;;;;;11.13;10.80;;;21.60;99.90;;;;;;4897462;29;20907;-73
2023/07/23 07:20:01;;;;;;;11.20;10.80;;;21.70;99.90;;;;;;4892554;29;20542;-72
2023/07/23 07:22:31;;;;;;;10.93;10.63;;;21.80;99.90;;;;;;4891576;29;20464;-72
2023/07/23 07:24:59;;;;;;;10.97;10.63;;;22.00;99.90;;;;;;4898032;29;20834;-85
2023/07/23 07:27:27;;;;;;;11.55;11.00;;;22.10;99.90;;;;;;4895523;29;20677;-85
2023/07/23 07:29:55;;;;;;;11.00;10.67;;;22.10;99.90;;;;;;4893910;29;20250;-83
2023/07/23 07:32:28;;;;;;;10.70;10.40;;;22.20;99.90;;;;;;4905927;29;21158;-84
2023/07/23 07:34:56;;;;;;;10.70;10.40;;;22.30;99.90;;;;;;4903187;29;20593;-87
2023/07/23 07:37:25;;;;;;;11.03;10.63;;;22.40;99.90;;;;;;4903246;29;21020;-86
2023/07/23 07:39:55;;;;;;;10.60;10.23;;;22.50;99.90;;;;;;4902346;29;20489;-87
2023/07/23 07:42:26;;;;;;;10.50;10.20;;;22.50;99.90;;;;;;4905541;29;20482;-84
2023/07/23 07:44:54;;;;;;;10.93;10.63;;;22.40;99.90;;;;;;4889183;29;20820;-88
2023/07/23 07:47:23;;;;;;;10.60;10.10;;;22.50;99.90;;;;;;4908318;29;21048;-88
2023/07/23 07:49:52;;;;;;;10.83;10.53;;;22.50;99.90;;;;;;4909224;29;20476;-86
2023/07/23 07:52:20;;;;;;;11.00;10.70;;;22.50;99.90;;;;;;4908848;29;21007;-85
2023/07/23 07:54:49;;;;;;;10.87;10.57;;;22.60;99.90;;;;;;4891653;29;20467;-87
2023/07/23 07:57:19;;;;;;;11.93;11.43;;;22.60;99.90;;;;;;4907457;29;20509;-86
2023/07/23 07:59:48;;;;;;;12.17;11.67;;;22.60;99.90;;;;;;4905803;29;20573;-85
2023/07/23 08:02:17;;;;;;;10.80;10.50;;;22.60;99.90;;;;;;4889727;29;21007;-86
2023/07/23 08:04:47;;;;;;;10.77;10.47;;;22.70;99.90;;;;;;4905026;29;20548;-85
2023/07/23 08:07:19;;;;;;;10.47;10.27;;;22.70;99.90;;;;;;4907225;29;20533;-85
2023/07/23 08:09:49;;;;;;;11.07;10.63;;;22.80;99.90;;;;;;4895531;29;20491;-84
2023/07/23 08:12:19;;;;;;;10.60;10.30;;;22.80;99.90;;;;;;4904662;29;20986;-86
2023/07/23 08:14:48;;;;;;;10.87;10.57;;;22.90;99.90;;;;;;4904947;29;20467;-85
2023/07/23 08:17:17;;;;;;;10.83;10.63;;;22.90;99.90;;;;;;4905504;29;20512;-85
2023/07/23 08:19:46;;;;;;;11.00;10.70;;;22.90;99.90;;;;;;4904633;29;20521;-86
2023/07/23 08:22:15;;;;;;;10.83;10.47;;;23.00;99.90;;;;;;4904993;29;20518;-87
2023/07/23 08:24:43;;;;;;;10.80;10.47;;;23.00;99.90;;;;;;4908208;29;20851;-84
2023/07/23 08:27:15;;;;;;;11.00;10.63;;;23.00;99.90;;;;;;4906822;29;20461;-85
2023/07/23 08:29:46;;;;;;;11.10;10.80;;;23.10;99.90;;;;;;4903129;29;20490;-85
2023/07/23 08:32:20;;;;;;;10.50;10.30;;;23.10;99.90;;;;;;4903420;29;20494;-86
2023/07/23 08:34:49;;;;;;;10.93;10.63;;;23.10;99.90;;;;;;4907717;29;20561;-86
2023/07/23 08:37:18;;;;;;;10.50;10.20;;;23.20;99.90;;;;;;4905601;29;21022;-84
2023/07/23 08:39:46;;;;;;;11.60;11.30;;;23.10;99.90;;;;;;4902808;29;20593;-87
2023/07/23 08:42:39;;;;;;;11.33;10.93;;;23.20;99.90;;;;;;4905193;29;20462;-83
2023/07/23 08:45:38;;;;;;;11.00;10.60;;;23.20;99.90;;;;;;4901769;29;20975;-83
2023/07/23 08:48:16;;;;;;;11.63;11.23;;;23.10;99.90;;;;;;4880441;29;20463;-87
2023/07/23 08:50:45;;;;;;;11.37;10.97;;;23.10;99.90;;;;;;4885252;29;20557;-84
2023/07/23 08:53:15;;;;;;;11.80;11.30;;;23.20;99.90;;;;;;4887845;29;20487;-84
2023/07/23 08:55:45;;;;;;;10.70;10.40;;;23.10;99.90;;;;;;4899333;29;20466;-87
2023/07/23 08:58:15;;;;;;;10.50;10.20;;;23.20;99.90;;;;;;4902278;29;20937;-86
2023/07/23 09:00:46;;;;;;;10.33;9.93;;;23.20;99.90;;;;;;4905296;29;20486;-86
2023/07/23 09:03:17;;;;;;;10.23;9.93;;;23.10;99.90;;;;;;4897910;29;20657;-85
2023/07/23 09:05:46;;;;;;;9.77;9.57;;;23.20;99.90;;;;;;4896027;29;20968;-85
2023/07/23 09:08:14;;;;;;;10.20;9.90;;;23.20;99.90;;;;;;4903792;29;20454;-84
2023/07/23 09:10:43;;;;;;;9.97;9.67;;;23.10;99.90;;;;;;4903082;29;21062;-86
2023/07/23 09:13:13;;;;;;;9.60;9.40;;;23.20;99.90;;;;;;4900298;29;20561;-86
2023/07/23 09:15:43;;;;;;;10.50;10.20;;;23.20;99.90;;;;;;4903177;29;20454;-85
2023/07/23 09:18:12;;;;;;;10.20;9.70;;;23.30;99.90;;;;;;4902903;29;20476;-84
2023/07/23 09:20:40;;;;;;;10.00;9.70;;;23.30;99.90;;;;;;4906292;29;20482;-87
2023/07/23 09:23:09;;;;;;;9.50;9.30;;;23.30;99.90;;;;;;4903858;29;20459;-86
2023/07/23 09:25:38;;;;;;;9.93;9.63;;;23.30;99.90;;;;;;4896424;29;20548;-84
2023/07/23 09:28:07;;;;;;;10.30;10.00;;;23.40;99.90;;;;;;4883714;29;20505;-84
2023/07/23 09:30:40;;;;;;;10.10;9.80;;;23.50;99.90;;;;;;4901848;29;20509;-86
2023/07/23 09:33:13;;;;;;;10.07;9.77;;;23.60;99.90;;;;;;4898147;29;20987;-85
2023/07/23 09:35:41;;;;;;;10.43;9.93;;;23.60;99.90;;;;;;4898042;29;20561;-86
2023/07/23 09:38:13;;;;;;;10.23;9.93;;;23.80;99.90;;;;;;4902488;29;20462;-85
2023/07/23 09:40:45;;;;;;;10.53;10.23;;;23.80;99.90;;;;;;4902971;29;20493;-85
2023/07/23 09:43:30;;;;;;;10.67;10.37;;;23.70;99.90;;;;;;4899358;29;21080;-85
2023/07/23 09:45:59;;;;;;;10.37;10.07;;;23.80;99.90;;;;;;4893730;29;20462;-85
2023/07/23 09:48:29;;;;;;;10.00;9.70;;;23.80;99.90;;;;;;4904036;29;20461;-84
2023/07/23 09:50:58;;;;;;;9.80;9.53;;;23.70;99.90;;;;;;4904731;29;20483;-84
2023/07/23 09:53:29;;;;;;;9.80;9.60;;;23.70;99.90;;;;;;4887898;29;20965;-86
2023/07/23 09:55:59;;;;;;;10.37;10.03;;;23.70;99.90;;;;;;4904499;29;20470;-85
2023/07/23 09:58:30;;;;;;;10.40;10.10;;;23.80;99.90;;;;;;4906500;29;20538;-85
2023/07/23 10:00:59;;;;;;;10.57;10.27;;;23.80;99.90;;;;;;4907783;29;20830;-83
2023/07/23 10:03:29;;;;;;;10.40;10.10;;;23.90;99.90;;;;;;4884927;29;20467;-87
2023/07/23 10:05:57;;;;;;;10.33;9.40;;;24.00;99.90;;;;;;4899235;29;20469;-84
2023/07/23 10:08:27;;;;;;;9.97;9.53;;;23.90;99.90;;;;;;4906231;29;20530;-86
2023/07/23 10:10:56;;;;;;;9.90;9.20;;;23.90;99.90;;;;;;4901181;29;20479;-86
2023/07/23 10:13:24;;;;;;;10.43;9.83;;;23.80;99.90;;;;;;4907797;29;20497;-85
2023/07/23 10:15:53;;;;;;;10.13;9.83;;;23.80;99.90;;;;;;4906620;29;20549;-83
2023/07/23 10:18:26;;;;;;;10.80;10.50;;;23.80;99.90;;;;;;4904016;29;20465;-86
2023/07/23 10:20:56;;;;;;;10.30;10.07;;;24.00;99.90;;;;;;4906283;29;21084;-86
2023/07/23 10:23:25;;;;;;;10.20;9.90;;;24.10;99.90;;;;;;4891635;29;20462;-84
2023/07/23 10:26:21;;;;;;;11.00;10.60;;;24.10;99.90;;;;;;4908273;29;20464;-86
2023/07/23 10:28:50;;;;;;;10.63;10.33;;;24.20;99.90;;;;;;4902013;29;20525;-85
2023/07/23 10:31:23;;;;;;;10.57;10.23;;;24.30;99.90;;;;;;4908604;29;20468;-85
2023/07/23 10:33:51;;;;;;;11.30;10.83;;;24.40;99.90;;;;;;4883957;29;20550;-84
2023/07/23 10:36:22;;;;;;;10.50;10.20;;;24.40;99.90;;;;;;4886118;29;20467;-85
2023/07/23 10:39:17;;;;;;;10.43;10.13;;;24.30;99.90;;;;;;4904795;29;21215;-85
2023/07/23 10:41:53;;;;;;;11.13;10.83;;;24.40;99.90;;;;;;4905353;29;20517;-84
2023/07/23 10:44:22;;;;;;;11.00;10.50;;;24.40;99.90;;;;;;4905802;29;20509;-85
2023/07/23 10:46:51;;;;;;;11.50;11.07;;;24.60;99.90;;;;;;4902578;29;20542;-86
2023/07/23 10:49:24;;;;;;;12.70;12.20;;;24.50;99.90;;;;;;4899932;29;20485;-85
2023/07/23 10:51:53;;;;;;;10.97;10.67;;;24.50;99.90;;;;;;4893034;29;20812;-88
2023/07/23 10:54:22;;;;;;;11.00;10.60;;;24.50;99.90;;;;;;4899428;29;20476;-88
2023/07/23 10:56:52;;;;;;;10.67;10.37;;;24.60;99.90;;;;;;4882975;29;20555;-85
2023/07/23 10:59:22;;;;;;;10.97;10.67;;;24.70;99.90;;;;;;4900921;29;21035;-87
2023/07/23 11:01:51;;;;;;;11.47;11.07;;;24.90;99.90;;;;;;4903052;29;20557;-85
2023/07/23 11:04:25;;;;;;;10.00;9.70;;;25.00;99.90;;;;;;4889799;29;20961;-86
2023/07/23 11:07:00;;;;;;;10.47;9.90;;;25.00;99.90;;;;;;4898104;29;20976;-84
2023/07/23 11:12:23;;;;;;;10.30;10.00;;;24.90;99.90;;;;;;4898201;29;20489;-85
2023/07/23 11:14:58;;;;;;;10.00;9.70;;;25.10;99.90;;;;;;4901635;29;20469;-84
2023/07/23 11:17:28;;;;;;;10.60;10.30;;;25.10;99.90;;;;;;4902197;29;21076;-84
2023/07/23 11:20:03;;;;;;;10.53;10.20;;;25.10;99.90;;;;;;4903037;29;20504;-83
2023/07/23 11:22:32;;;;;;;10.40;10.10;;;25.10;99.90;;;;;;4900699;29;20577;-84
2023/07/23 11:25:02;;;;;;;10.00;9.70;;;25.20;99.90;;;;;;4904104;29;20462;-85
2023/07/23 11:27:36;;;;;;;10.90;10.50;;;25.40;99.90;;;;;;4905546;29;20557;-84
2023/07/23 11:30:15;;;;;;;9.73;9.43;;;25.50;99.90;;;;;;4881100;29;20510;-84
2023/07/23 11:32:48;;;;;;;9.70;9.30;;;25.40;99.90;;;;;;4892108;29;20487;-84
2023/07/23 11:35:17;;;;;;;9.90;9.60;;;25.40;99.90;;;;;;4904080;29;20472;-86
2023/07/23 11:37:49;;;;;;;10.10;9.80;;;25.50;99.90;;;;;;4905227;29;20841;-84
2023/07/23 11:40:34;;;;;;;10.20;9.70;;;25.50;99.90;;;;;;4906468;29;22320;-85
2023/07/23 11:43:09;;;;;;;10.57;9.77;;;25.40;99.90;;;;;;4896048;29;20494;-85
2023/07/23 11:46:02;;;;;;;9.40;9.10;;;25.40;99.90;;;;;;4904861;29;20462;-84
2023/07/23 11:48:31;;;;;;;9.33;8.93;;;25.40;99.90;;;;;;4902017;29;20451;-83
2023/07/23 11:51:02;;;;;;;9.43;9.03;;;25.30;99.90;;;;;;4898755;29;20533;-82
2023/07/23 11:53:44;;;;;;;9.80;9.40;;;25.30;99.90;;;;;;4894802;29;20469;-84
2023/07/23 11:56:41;;;;;;;9.70;9.40;;;25.40;99.60;;;;;;4900470;29;20453;-87
2023/07/23 11:59:43;;;;;;;9.33;9.03;;;25.50;99.60;;;;;;4889529;29;21741;-85
2023/07/23 12:02:13;;;;;;;8.63;8.07;;;25.40;99.40;;;;;;4895107;29;20570;-84
2023/07/23 12:04:55;;;;;;;8.37;8.07;;;25.40;98.70;;;;;;4897822;29;20490;-85
2023/07/23 12:07:24;;;;;;;8.67;8.27;;;25.20;97.30;;;;;;4901850;29;20476;-85
2023/07/23 12:09:52;;;;;;;9.00;8.70;;;25.20;97.30;;;;;;4898619;29;20573;-84
2023/07/23 12:12:23;;;;;;;9.27;8.87;;;25.20;98.20;;;;;;4905356;29;20778;-83
2023/07/23 12:15:06;;;;;;;8.17;7.97;;;25.10;97.40;;;;;;4902046;29;20458;-86
2023/07/23 12:17:39;;;;;;;8.67;8.17;;;25.10;97.30;;;;;;4902083;29;20490;-83
2023/07/23 12:20:21;;;;;;;8.77;8.47;;;25.10;96.80;;;;;;4901404;29;20522;-82
2023/07/23 12:22:51;;;;;;;8.93;8.53;;;25.10;96.90;;;;;;4903128;29;20477;-81
2023/07/23 12:25:19;;;;;;;10.17;9.77;;;25.00;97.10;;;;;;4901301;29;20468;-84
2023/07/23 12:27:48;;;;;;;9.37;9.10;;;25.00;97.00;;;;;;4901187;29;20465;-82
2023/07/23 12:30:17;;;;;;;9.70;9.40;;;24.90;96.30;;;;;;4884885;29;20491;-83
2023/07/23 12:32:48;;;;;;;9.82;9.43;;;24.80;95.90;;;;;;4878850;29;21002;-81
2023/07/23 12:35:19;;;;;;;9.70;9.30;;;24.80;95.60;;;;;;4901679;29;20202;-87
2023/07/23 12:37:48;;;;;;;9.30;8.97;;;24.80;95.90;;;;;;4901472;29;20467;-86
2023/07/23 12:40:18;;;;;;;9.17;8.80;;;24.80;95.40;;;;;;4881447;29;20590;-84
2023/07/23 12:42:46;;;;;;;10.23;9.83;;;24.80;95.40;;;;;;4885926;29;20475;-84
2023/07/23 12:45:14;;;;;;;9.90;9.60;;;24.70;95.20;;;;;;4895444;29;20458;-82
2023/07/23 12:47:43;;;;;;;9.10;8.70;;;24.70;95.40;;;;;;4898493;29;20956;-83
2023/07/23 12:50:15;;;;;;;9.40;9.00;;;24.70;94.50;;;;;;4898636;29;20485;-83
2023/07/23 12:53:04;;;;;;;9.30;8.80;;;24.70;94.30;;;;;;4899316;29;20458;-83